createdAt,value
2019-05-22T00:00:23.452Z,83.67
2019-05-22T00:02:53.518Z,83.65
2019-05-22T00:05:34.765Z,83.61
2019-05-22T00:08:05.548Z,83.60
2019-05-22T00:10:34.872Z,83.41
2019-05-22T00:13:06.188Z,83.45
2019-05-22T00:15:38.621Z,82.91
2019-05-22T00:18:07.776Z,83.12
2019-05-22T00:20:37.340Z,82.55
2019-05-22T00:23:10.987Z,82.15
2019-05-22T00:25:41.155Z,82.02
2019-05-22T00:28:10.555Z,81.89
2019-05-22T00:30:41.453Z,81.88
2019-05-22T00:33:11.906Z,81.76
2019-05-22T00:35:42.331Z,81.40
2019-05-22T00:38:11.796Z,81.32
2019-05-22T00:40:42.768Z,81.43
2019-05-22T00:43:14.557Z,81.39
2019-05-22T00:45:46.094Z,80.90
2019-05-22T00:48:16.575Z,80.47
2019-05-22T00:50:53.687Z,80.68
2019-05-22T00:53:43.166Z,80.95
2019-05-22T00:56:16.498Z,80.96
2019-05-22T00:58:49.323Z,80.73
2019-05-22T01:01:22.325Z,80.83
2019-05-22T01:03:52.915Z,80.17
2019-05-22T01:06:22.891Z,80.58
2019-05-22T01:08:52.737Z,80.48
2019-05-22T01:11:24.151Z,80.38
2019-05-22T01:13:54.467Z,80.57
2019-05-22T01:16:24.954Z,80.75
2019-05-22T01:18:54.033Z,80.76
2019-05-22T01:21:24.779Z,80.88
2019-05-22T01:23:55.913Z,81.12
2019-05-22T01:26:26.100Z,81.32
2019-05-22T01:28:56.047Z,81.43
2019-05-22T01:31:33.408Z,81.56
2019-05-22T01:34:06.042Z,81.68
2019-05-22T01:36:36.676Z,82.09
2019-05-22T01:39:13.086Z,81.96
2019-05-22T01:41:44.583Z,81.88
2019-05-22T01:44:14.358Z,80.93
2019-05-22T01:46:45.428Z,80.67
2019-05-22T01:49:14.023Z,80.61
2019-05-22T01:51:44.687Z,80.82
2019-05-22T01:54:13.206Z,80.79
2019-05-22T01:56:43.107Z,81.18
2019-05-22T01:59:12.566Z,81.44
2019-05-22T02:01:42.211Z,81.62
2019-05-22T02:04:14.769Z,81.74
2019-05-22T02:06:43.557Z,81.58
2019-05-22T02:09:33.894Z,81.43
2019-05-22T02:12:28.059Z,80.97
2019-05-22T02:14:57.958Z,80.94
2019-05-22T02:17:34.086Z,80.76
2019-05-22T02:20:06.683Z,81.05
2019-05-22T02:22:39.113Z,81.56
2019-05-22T02:25:08.602Z,81.68
2019-05-22T02:27:39.132Z,81.97
2019-05-22T02:30:09.499Z,81.93
2019-05-22T02:32:39.138Z,81.79
2019-05-22T02:35:09.266Z,81.54
2019-05-22T02:37:39.272Z,81.63
2019-05-22T02:40:16.360Z,81.17
2019-05-22T02:42:46.456Z,80.90
2019-05-22T02:45:16.514Z,81.33
2019-05-22T02:47:46.949Z,81.45
2019-05-22T02:50:16.933Z,81.30
2019-05-22T02:52:47.412Z,81.17
2019-05-22T02:55:16.844Z,81.41
2019-05-22T02:57:46.658Z,81.27
2019-05-22T03:00:16.858Z,81.21
2019-05-22T03:02:50.383Z,81.39
2019-05-22T03:05:21.016Z,81.16
2019-05-22T03:07:50.294Z,81.50
2019-05-22T03:10:20.550Z,81.59
2019-05-22T03:12:51.040Z,81.61
2019-05-22T03:15:23.938Z,81.86
2019-05-22T03:17:59.927Z,82.13
2019-05-22T03:20:29.775Z,81.71
2019-05-22T03:23:04.544Z,81.90
2019-05-22T03:25:34.075Z,82.00
2019-05-22T03:28:04.704Z,82.17
2019-05-22T03:30:37.130Z,82.27
2019-05-22T03:33:08.457Z,82.54
2019-05-22T03:35:44.510Z,82.49
2019-05-22T03:38:13.552Z,82.41
2019-05-22T03:40:42.963Z,82.50
2019-05-22T03:43:27.152Z,82.73
2019-05-22T03:45:59.003Z,82.69
2019-05-22T03:48:30.800Z,82.84
2019-05-22T03:51:08.909Z,82.85
2019-05-22T03:53:38.361Z,82.39
2019-05-22T03:56:07.008Z,82.78
2019-05-22T03:58:36.244Z,82.78
2019-05-22T04:01:06.734Z,82.70
2019-05-22T04:03:36.060Z,82.80
2019-05-22T04:06:06.272Z,82.48
2019-05-22T04:08:37.059Z,82.84
2019-05-22T04:11:08.049Z,82.99
2019-05-22T04:13:36.716Z,82.69
2019-05-22T04:16:08.266Z,82.45
2019-05-22T04:18:39.318Z,82.44
2019-05-22T04:21:07.974Z,81.56
2019-05-22T04:23:38.421Z,81.51
2019-05-22T04:26:09.642Z,81.57
2019-05-22T04:28:51.170Z,81.70
2019-05-22T04:31:20.605Z,81.85
2019-05-22T04:33:49.237Z,82.18
2019-05-22T04:36:18.345Z,81.97
2019-05-22T04:38:46.860Z,82.35
2019-05-22T04:41:16.929Z,82.03
2019-05-22T04:43:45.990Z,82.38
2019-05-22T04:46:14.571Z,82.20
2019-05-22T04:48:46.102Z,81.80
2019-05-22T04:51:24.156Z,82.05
2019-05-22T04:53:54.023Z,81.93
2019-05-22T04:56:23.955Z,81.92
2019-05-22T04:58:53.462Z,82.04
2019-05-22T05:01:22.467Z,82.20
2019-05-22T05:03:51.084Z,82.18
2019-05-22T05:06:21.592Z,82.34
2019-05-22T05:08:51.378Z,82.84
2019-05-22T05:11:20.983Z,83.06
2019-05-22T05:13:49.772Z,83.20
2019-05-22T05:16:18.931Z,83.00
2019-05-22T05:18:47.492Z,83.10
2019-05-22T05:21:16.556Z,83.48
2019-05-22T05:23:45.064Z,83.40
2019-05-22T05:26:14.238Z,83.39
2019-05-22T05:28:43.524Z,83.66
2019-05-22T05:31:13.537Z,83.69
2019-05-22T05:34:04.546Z,83.47
2019-05-22T05:36:33.021Z,83.59
2019-05-22T05:39:01.823Z,83.68
2019-05-22T05:41:31.190Z,83.94
2019-05-22T05:44:00.457Z,83.92
2019-05-22T05:46:29.579Z,83.60
2019-05-22T05:48:58.303Z,83.18
2019-05-22T05:51:29.124Z,83.25
2019-05-22T05:54:03.937Z,83.51
2019-05-22T05:56:33.845Z,83.52
2019-05-22T05:59:05.616Z,82.92
2019-05-22T06:01:40.564Z,83.04
2019-05-22T06:04:10.048Z,83.31
2019-05-22T06:06:44.607Z,82.97
2019-05-22T06:09:21.923Z,82.75
2019-05-22T06:11:56.150Z,82.81
2019-05-22T06:14:29.562Z,82.16
2019-05-22T06:17:36.015Z,82.21
2019-05-22T06:20:11.925Z,82.31
2019-05-22T06:22:42.982Z,82.64
2019-05-22T06:25:14.390Z,82.65
2019-05-22T06:27:49.193Z,82.79
2019-05-22T06:30:21.342Z,83.05
2019-05-22T06:33:10.975Z,83.64
2019-05-22T06:35:40.505Z,83.79
2019-05-22T06:38:27.592Z,84.10
2019-05-22T06:40:56.087Z,84.36
2019-05-22T06:43:31.492Z,84.63
2019-05-22T06:46:00.015Z,84.75
2019-05-22T06:48:28.630Z,85.17
2019-05-22T06:50:58.092Z,85.48
2019-05-22T06:53:26.616Z,85.65
2019-05-22T06:55:55.406Z,85.62
2019-05-22T06:58:23.944Z,85.63
2019-05-22T07:00:52.502Z,85.89
2019-05-22T07:03:22.224Z,86.07
2019-05-22T07:05:51.880Z,85.88
2019-05-22T07:08:20.612Z,86.25
2019-05-22T07:10:49.286Z,86.44
2019-05-22T07:13:20.067Z,86.40
2019-05-22T07:15:48.762Z,86.70
2019-05-22T07:18:19.887Z,86.67
2019-05-22T07:20:50.373Z,86.40
2019-05-22T07:23:21.650Z,86.52
2019-05-22T07:25:52.085Z,86.38
2019-05-22T07:28:22.758Z,86.43
2019-05-22T07:30:52.861Z,86.45
2019-05-22T07:33:23.041Z,86.49
2019-05-22T07:36:08.726Z,86.61
2019-05-22T07:38:23.509Z,86.84
2019-05-22T07:40:53.134Z,86.69
2019-05-22T07:43:22.513Z,86.83
2019-05-22T07:45:52.915Z,86.96
2019-05-22T07:48:24.415Z,86.97
2019-05-22T07:50:55.490Z,87.16
2019-05-22T07:53:26.499Z,87.23
2019-05-22T07:55:57.851Z,87.29
2019-05-22T07:58:29.804Z,87.27
2019-05-22T08:01:02.193Z,87.08
2019-05-22T08:03:33.395Z,86.90
2019-05-22T08:06:03.261Z,86.95
2019-05-22T08:08:33.262Z,86.71
2019-05-22T08:11:04.106Z,86.24
2019-05-22T08:13:33.721Z,85.81
2019-05-22T08:16:03.601Z,86.31
2019-05-22T08:18:34.201Z,86.42
2019-05-22T08:21:03.718Z,86.10
2019-05-22T08:23:33.635Z,85.68
2019-05-22T08:26:02.215Z,85.89
2019-05-22T08:28:32.510Z,86.33
2019-05-22T08:31:03.419Z,86.37
2019-05-22T08:33:35.449Z,86.59
2019-05-22T08:36:05.514Z,86.41
2019-05-22T08:38:36.181Z,86.56
2019-05-22T08:41:08.845Z,86.59
2019-05-22T08:44:03.423Z,86.42
2019-05-22T08:46:10.023Z,86.68
2019-05-22T08:48:47.416Z,86.84
2019-05-22T08:51:12.551Z,86.13
2019-05-22T08:53:47.322Z,86.36
2019-05-22T08:56:13.969Z,86.26
2019-05-22T08:58:44.264Z,86.44
2019-05-22T09:01:13.734Z,86.13
2019-05-22T09:03:42.319Z,86.07
2019-05-22T09:06:11.709Z,86.22
2019-05-22T09:08:40.933Z,86.35
2019-05-22T09:11:09.964Z,86.12
2019-05-22T09:13:39.037Z,86.06
2019-05-22T09:16:08.611Z,86.15
2019-05-22T09:18:38.217Z,86.07
2019-05-22T09:21:07.816Z,85.75
2019-05-22T09:23:37.166Z,85.89
2019-05-22T09:26:07.353Z,85.95
2019-05-22T09:28:36.182Z,85.95
2019-05-22T09:31:05.726Z,86.40
2019-05-22T09:33:36.741Z,86.29
2019-05-22T09:36:05.787Z,86.24
2019-05-22T09:38:34.773Z,86.13
2019-05-22T09:41:03.840Z,85.86
2019-05-22T09:43:32.695Z,85.47
2019-05-22T09:46:02.719Z,85.48
2019-05-22T09:48:32.897Z,84.94
2019-05-22T09:51:01.651Z,85.49
2019-05-22T09:53:31.464Z,85.56
2019-05-22T09:56:00.059Z,85.47
2019-05-22T09:58:29.166Z,85.76
2019-05-22T10:00:57.753Z,85.68
2019-05-22T10:03:26.811Z,85.29
2019-05-22T10:05:55.625Z,85.22
2019-05-22T10:08:25.175Z,85.22
2019-05-22T10:10:53.849Z,84.98
2019-05-22T10:13:22.573Z,84.82
2019-05-22T10:15:51.741Z,84.94
2019-05-22T10:18:20.819Z,84.71
2019-05-22T10:20:49.556Z,84.25
2019-05-22T10:23:19.012Z,84.07
2019-05-22T10:25:47.698Z,83.76
2019-05-22T10:28:17.082Z,83.25
2019-05-22T10:30:45.636Z,83.43
2019-05-22T10:33:14.309Z,82.62
2019-05-22T10:35:43.258Z,82.94
2019-05-22T10:38:12.463Z,82.74
2019-05-22T10:40:41.321Z,83.39
2019-05-22T10:43:09.894Z,83.43
2019-05-22T10:45:38.778Z,83.57
2019-05-22T10:48:07.227Z,83.29
2019-05-22T10:50:36.654Z,83.09
2019-05-22T10:53:05.475Z,83.49
2019-05-22T10:55:35.935Z,83.02
2019-05-22T10:58:05.660Z,83.17
2019-05-22T11:00:34.416Z,83.17
2019-05-22T11:03:03.623Z,83.14
2019-05-22T11:05:33.807Z,82.98
2019-05-22T11:08:02.841Z,83.30
2019-05-22T11:10:31.357Z,83.56
2019-05-22T11:13:00.785Z,83.55
2019-05-22T11:15:30.982Z,83.65
2019-05-22T11:17:59.682Z,83.50
2019-05-22T11:20:29.013Z,82.65
2019-05-22T11:22:57.933Z,82.94
2019-05-22T11:25:27.018Z,82.95
2019-05-22T11:27:55.766Z,82.61
2019-05-22T11:30:24.903Z,82.55
2019-05-22T11:32:53.945Z,82.20
2019-05-22T11:35:23.923Z,82.20
2019-05-22T11:37:52.980Z,81.46
2019-05-22T11:40:22.860Z,81.30
2019-05-22T11:42:53.603Z,80.93
2019-05-22T11:45:23.921Z,81.90
2019-05-22T11:47:53.778Z,82.03
2019-05-22T11:50:23.662Z,82.23
2019-05-22T11:52:52.195Z,82.41
2019-05-22T11:55:21.914Z,82.25
2019-05-22T11:57:52.021Z,81.67
2019-05-22T12:00:23.174Z,82.18
2019-05-22T12:02:52.656Z,82.15
2019-05-22T12:05:22.033Z,81.79
2019-05-22T12:07:51.594Z,82.25
2019-05-22T12:10:22.366Z,81.51
2019-05-22T12:12:53.606Z,80.82
2019-05-22T12:15:26.710Z,81.06
2019-05-22T12:17:55.664Z,80.73
2019-05-22T12:20:26.270Z,80.64
2019-05-22T12:22:55.675Z,81.05
2019-05-22T12:25:25.883Z,81.33
2019-05-22T12:27:55.212Z,81.51
2019-05-22T12:30:25.165Z,81.46
2019-05-22T12:32:54.337Z,81.87
2019-05-22T12:35:24.066Z,81.92
2019-05-22T12:37:53.899Z,81.62
2019-05-22T12:40:22.851Z,81.86
2019-05-22T12:42:53.139Z,82.33
2019-05-22T12:45:28.923Z,81.84
2019-05-22T12:47:59.367Z,82.41
2019-05-22T12:50:31.881Z,82.91
2019-05-22T12:53:03.521Z,82.55
2019-05-22T12:55:32.444Z,82.49
2019-05-22T12:58:02.263Z,82.60
2019-05-22T13:00:31.457Z,81.96
2019-05-22T13:03:02.167Z,81.49
2019-05-22T13:05:32.630Z,81.16
2019-05-22T13:08:02.190Z,80.45
2019-05-22T13:10:31.335Z,80.51
2019-05-22T13:12:59.918Z,79.34
2019-05-22T13:15:28.556Z,79.63
2019-05-22T13:17:59.607Z,79.13
2019-05-22T13:20:42.566Z,77.93
2019-05-22T13:23:04.707Z,77.20
2019-05-22T13:25:36.594Z,77.40
2019-05-22T13:28:07.233Z,76.71
2019-05-22T13:30:39.313Z,76.46
2019-05-22T13:33:11.393Z,75.50
2019-05-22T13:35:41.919Z,74.69
2019-05-22T13:38:13.046Z,76.19
2019-05-22T13:40:43.924Z,76.01
2019-05-22T13:43:12.655Z,75.64
2019-05-22T13:45:41.563Z,74.49
2019-05-22T13:48:10.150Z,75.17
2019-05-22T13:50:39.386Z,75.42
2019-05-22T13:53:11.930Z,76.27
2019-05-22T13:55:41.226Z,75.30
2019-05-22T13:58:11.985Z,74.22
2019-05-22T14:00:41.959Z,74.41
2019-05-22T14:03:11.385Z,75.29
2019-05-22T14:05:42.283Z,74.35
2019-05-22T14:08:12.173Z,73.08
2019-05-22T14:10:41.261Z,72.12
2019-05-22T14:13:09.995Z,72.61
2019-05-22T14:15:50.587Z,72.92
2019-05-22T14:18:09.595Z,71.18
2019-05-22T14:20:38.584Z,71.42
2019-05-22T14:23:07.416Z,71.78
2019-05-22T14:25:36.454Z,72.69
2019-05-22T14:28:06.743Z,71.64
2019-05-22T14:30:35.502Z,72.08
2019-05-22T14:33:05.499Z,72.22
2019-05-22T14:35:47.590Z,72.10
2019-05-22T14:38:09.322Z,72.19
2019-05-22T14:40:38.678Z,71.46
2019-05-22T14:43:08.144Z,71.68
2019-05-22T14:45:37.989Z,71.35
2019-05-22T14:48:06.712Z,70.61
2019-05-22T14:50:35.938Z,68.67
2019-05-22T14:53:04.628Z,69.03
2019-05-22T14:55:35.154Z,68.00
2019-05-22T14:58:05.441Z,68.16
2019-05-22T15:00:34.693Z,68.59
2019-05-22T15:03:03.818Z,67.76
2019-05-22T15:05:32.854Z,68.13
2019-05-22T15:08:01.452Z,67.78
2019-05-22T15:10:31.352Z,67.23
2019-05-22T15:13:00.363Z,67.22
2019-05-22T15:15:29.349Z,67.84
2019-05-22T15:17:58.889Z,68.26
2019-05-22T15:20:32.926Z,67.79
2019-05-22T15:23:01.568Z,68.41
2019-05-22T15:25:30.312Z,66.70
2019-05-22T15:28:00.180Z,66.56
2019-05-22T15:30:29.301Z,64.67
2019-05-22T15:32:57.968Z,65.67
2019-05-22T15:35:26.993Z,66.46
2019-05-22T15:37:55.962Z,67.26
2019-05-22T15:40:25.288Z,64.22
2019-05-22T15:42:54.338Z,63.82
2019-05-22T15:45:30.252Z,65.82
2019-05-22T15:48:02.690Z,66.91
2019-05-22T15:50:34.453Z,65.60
2019-05-22T15:53:13.553Z,65.19
2019-05-22T15:55:42.609Z,65.97
2019-05-22T15:58:13.712Z,66.32
2019-05-22T16:00:44.965Z,65.96
2019-05-22T16:03:16.985Z,65.23
2019-05-22T16:05:46.286Z,65.50
2019-05-22T16:08:16.489Z,64.48
2019-05-22T16:10:48.268Z,65.53
2019-05-22T16:13:21.310Z,64.89
2019-05-22T16:15:54.886Z,67.52
2019-05-22T16:18:29.460Z,67.97
2019-05-22T16:21:02.251Z,67.19
2019-05-22T16:23:33.451Z,65.43
2019-05-22T16:26:05.285Z,65.97
2019-05-22T16:28:36.454Z,65.40
2019-05-22T16:31:08.524Z,64.44
2019-05-22T16:33:38.066Z,63.42
2019-05-22T16:36:08.323Z,63.73
2019-05-22T16:38:39.525Z,63.14
2019-05-22T16:41:08.856Z,64.06
2019-05-22T16:43:48.703Z,65.83
2019-05-22T16:46:11.354Z,65.48
2019-05-22T16:48:42.248Z,65.40
2019-05-22T16:51:13.246Z,65.82
2019-05-22T16:53:43.537Z,66.54
2019-05-22T16:56:12.226Z,64.45
2019-05-22T16:58:41.111Z,65.27
2019-05-22T17:01:10.820Z,64.36
2019-05-22T17:03:40.405Z,63.77
2019-05-22T17:06:09.109Z,63.88
2019-05-22T17:08:37.614Z,64.10
2019-05-22T17:11:07.766Z,64.99
2019-05-22T17:13:36.858Z,65.78
2019-05-22T17:16:07.047Z,66.60
2019-05-22T17:18:46.880Z,65.56
2019-05-22T17:21:07.962Z,65.35
2019-05-22T17:23:36.534Z,64.49
2019-05-22T17:26:05.818Z,64.51
2019-05-22T17:28:34.714Z,63.74
2019-05-22T17:31:04.294Z,65.31
2019-05-22T17:33:34.197Z,65.80
2019-05-22T17:36:05.724Z,65.84
2019-05-22T17:38:34.343Z,65.87
2019-05-22T17:41:03.925Z,65.45
2019-05-22T17:43:33.925Z,64.78
2019-05-22T17:46:04.227Z,65.52
2019-05-22T17:48:34.940Z,66.54
2019-05-22T17:51:05.099Z,65.39
2019-05-22T17:53:36.031Z,65.84
2019-05-22T17:56:05.590Z,65.47
2019-05-22T17:58:34.167Z,65.70
2019-05-22T18:01:04.750Z,66.12
2019-05-22T18:03:33.752Z,66.30
2019-05-22T18:06:02.853Z,67.05
2019-05-22T18:08:32.371Z,66.83
2019-05-22T18:11:03.887Z,66.42
2019-05-22T18:13:34.576Z,66.15
2019-05-22T18:16:04.752Z,66.17
2019-05-22T18:18:33.810Z,67.04
2019-05-22T18:21:02.365Z,66.67
2019-05-22T18:23:32.192Z,68.14
2019-05-22T18:26:00.694Z,67.65
2019-05-22T18:28:29.340Z,66.78
2019-05-22T18:30:58.148Z,67.06
2019-05-22T18:33:26.711Z,67.55
2019-05-22T18:35:55.516Z,67.66
2019-05-22T18:38:24.578Z,68.11
2019-05-22T18:40:53.145Z,68.23
2019-05-22T18:43:23.093Z,68.95
2019-05-22T18:45:52.321Z,68.34
2019-05-22T18:48:21.018Z,68.42
2019-05-22T18:50:50.515Z,69.49
2019-05-22T18:53:19.036Z,68.86
2019-05-22T18:55:47.710Z,69.12
2019-05-22T18:58:16.416Z,69.55
2019-05-22T19:00:45.564Z,69.17
2019-05-22T19:03:14.153Z,70.73
2019-05-22T19:05:43.977Z,71.33
2019-05-22T19:08:12.633Z,71.30
2019-05-22T19:10:41.366Z,72.51
2019-05-22T19:13:09.919Z,73.13
2019-05-22T19:15:38.903Z,71.77
2019-05-22T19:18:07.501Z,73.15
2019-05-22T19:20:36.245Z,74.44
2019-05-22T19:23:05.302Z,74.37
2019-05-22T19:25:34.899Z,74.89
2019-05-22T19:28:04.319Z,75.17
2019-05-22T19:30:33.519Z,75.29
2019-05-22T19:33:02.365Z,75.46
2019-05-22T19:35:30.960Z,75.33
2019-05-22T19:38:01.140Z,75.88
2019-05-22T19:40:29.935Z,74.85
2019-05-22T19:42:58.750Z,74.36
2019-05-22T19:45:30.871Z,74.18
2019-05-22T19:47:58.832Z,74.13
2019-05-22T19:50:29.072Z,73.84
2019-05-22T19:52:57.659Z,73.89
2019-05-22T19:55:28.472Z,73.95
2019-05-22T19:57:58.238Z,74.17
2019-05-22T20:00:28.194Z,74.19
2019-05-22T20:03:00.625Z,74.29
2019-05-22T20:05:30.212Z,74.33
2019-05-22T20:07:59.412Z,74.52
2019-05-22T20:10:28.143Z,74.61
2019-05-22T20:12:57.355Z,74.86
2019-05-22T20:15:26.336Z,74.85
2019-05-22T20:17:55.496Z,74.95
2019-05-22T20:20:26.025Z,75.04
2019-05-22T20:22:55.250Z,75.07
2019-05-22T20:25:25.815Z,74.84
2019-05-22T20:27:56.709Z,74.93
2019-05-22T20:30:27.091Z,74.87
2019-05-22T20:32:56.396Z,75.22
2019-05-22T20:35:25.128Z,75.39
2019-05-22T20:37:54.136Z,75.57
2019-05-22T20:40:24.022Z,75.47
2019-05-22T20:42:53.705Z,75.43
2019-05-22T20:45:24.739Z,75.44
2019-05-22T20:48:09.758Z,75.44
2019-05-22T20:50:39.490Z,75.68
2019-05-22T20:53:11.096Z,75.59
2019-05-22T20:55:42.641Z,75.69
2019-05-22T20:58:14.302Z,75.84
2019-05-22T21:00:43.586Z,75.74
2019-05-22T21:03:13.449Z,75.97
2019-05-22T21:05:43.541Z,76.23
2019-05-22T21:08:13.629Z,76.43
2019-05-22T21:10:44.587Z,76.48
2019-05-22T21:13:15.060Z,76.51
2019-05-22T21:15:44.888Z,76.57
2019-05-22T21:18:14.593Z,76.50
2019-05-22T21:20:54.289Z,76.57
2019-05-22T21:23:16.863Z,76.55
2019-05-22T21:25:45.783Z,76.48
2019-05-22T21:28:14.539Z,76.51
2019-05-22T21:30:43.597Z,76.56
2019-05-22T21:33:14.936Z,76.67
2019-05-22T21:35:44.261Z,76.93
2019-05-22T21:38:13.888Z,77.02
2019-05-22T21:40:42.855Z,76.94
2019-05-22T21:43:12.463Z,76.99
2019-05-22T21:45:42.155Z,76.98
2019-05-22T21:48:11.314Z,76.94
2019-05-22T21:50:40.967Z,76.96
2019-05-22T21:53:30.775Z,77.13
2019-05-22T21:56:04.972Z,77.38
2019-05-22T21:58:30.475Z,77.30
2019-05-22T22:01:06.297Z,77.59
2019-05-22T22:03:51.654Z,77.67
2019-05-22T22:06:21.381Z,77.72
2019-05-22T22:08:50.320Z,77.75
2019-05-22T22:11:20.749Z,77.69
2019-05-22T22:13:57.672Z,77.65
2019-05-22T22:16:29.270Z,77.81
2019-05-22T22:18:57.956Z,77.99
2019-05-22T22:21:27.282Z,78.17
2019-05-22T22:23:56.333Z,78.10
2019-05-22T22:26:26.768Z,78.04
2019-05-22T22:28:56.115Z,77.95
2019-05-22T22:31:26.205Z,78.00
2019-05-22T22:33:57.856Z,78.18
2019-05-22T22:36:27.649Z,78.29
2019-05-22T22:38:57.049Z,78.25
2019-05-22T22:41:26.554Z,78.24
2019-05-22T22:43:58.681Z,78.20
2019-05-22T22:46:29.593Z,78.33
2019-05-22T22:48:59.968Z,78.27
2019-05-22T22:51:30.198Z,78.07
2019-05-22T22:53:59.185Z,78.29
2019-05-22T22:56:29.188Z,78.34
2019-05-22T22:58:58.408Z,78.49
2019-05-22T23:01:31.130Z,78.58
2019-05-22T23:04:02.142Z,78.62
2019-05-22T23:06:31.674Z,78.62
2019-05-22T23:09:00.818Z,78.63
2019-05-22T23:11:30.862Z,78.65
2019-05-22T23:14:00.938Z,78.69
2019-05-22T23:16:53.422Z,78.70
2019-05-22T23:19:34.515Z,78.76
2019-05-22T23:22:03.326Z,78.88
2019-05-22T23:24:41.713Z,78.94
2019-05-22T23:27:13.614Z,79.00
2019-05-22T23:29:42.370Z,79.01
2019-05-22T23:32:12.458Z,78.91
2019-05-22T23:34:41.473Z,79.12
2019-05-22T23:37:10.895Z,79.21
2019-05-22T23:39:39.734Z,79.12
2019-05-22T23:42:12.704Z,79.15
2019-05-22T23:44:42.128Z,79.08
2019-05-22T23:47:11.440Z,78.92
2019-05-22T23:49:41.672Z,79.12
2019-05-22T23:52:12.306Z,79.41
2019-05-22T23:54:41.620Z,79.35
2019-05-22T23:57:11.008Z,79.51
2019-05-22T23:59:42.056Z,79.68
